Time;durP1;ratioP1;P1;durP2;ratioP2;P2;SDS_P1;SDS_P2;PMS_P1;PMS_P2;Temp;Humidity;BMP_temperature;BMP_pressure;BME280_temperature;BME280_humidity;BME280_pressure;Samples;Min_cycle;Max_cycle;Signal;HPM_P1;HPM_P2
2021/01/27 00:01:12;;;;;;;4.45;2.10;;;21.40;39.30;;;;;;5083212;28;20039;-48
2021/01/27 00:03:42;;;;;;;4.07;1.45;;;21.40;39.30;;;;;;5080892;28;20066;-50
2021/01/27 00:06:16;;;;;;;3.53;1.45;;;21.40;39.30;;;;;;5083235;28;20040;-48
2021/01/27 00:08:45;;;;;;;4.43;1.67;;;21.40;39.30;;;;;;5084440;28;20034;-50
2021/01/27 00:11:20;;;;;;;3.05;1.60;;;21.40;39.30;;;;;;5102352;27;20036;-50
2021/01/27 00:13:45;;;;;;;2.72;1.40;;;21.40;39.30;;;;;;5082819;28;20028;-49
2021/01/27 00:16:16;;;;;;;4.30;1.70;;;21.30;39.30;;;;;;5082436;28;20118;-49
2021/01/27 00:18:45;;;;;;;4.18;1.58;;;21.30;39.30;;;;;;5084407;28;20107;-47
2021/01/27 00:21:15;;;;;;;1.85;0.77;;;21.30;39.20;;;;;;5081961;28;20552;-50
2021/01/27 00:23:43;;;;;;;2.35;1.33;;;21.30;39.30;;;;;;5078214;28;20028;-48
2021/01/27 00:26:13;;;;;;;6.65;1.48;;;21.30;39.30;;;;;;5081926;28;20111;-48
2021/01/27 00:28:41;;;;;;;2.95;1.30;;;21.20;39.30;;;;;;5085859;28;20052;-48
2021/01/27 00:31:07;;;;;;;1.83;1.20;;;21.20;39.30;;;;;;5083009;28;20100;-45
2021/01/27 00:33:47;;;;;;;2.70;1.30;;;21.20;39.30;;;;;;5081098;28;20645;-48
2021/01/27 00:36:15;;;;;;;2.17;1.08;;;21.20;39.30;;;;;;5078949;28;20103;-54
2021/01/27 00:38:44;;;;;;;2.45;0.93;;;21.20;39.30;;;;;;5081363;28;20056;-51
2021/01/27 00:41:10;;;;;;;2.08;0.77;;;21.10;39.30;;;;;;5081639;28;20066;-51
2021/01/27 00:43:44;;;;;;;1.90;1.10;;;21.10;39.30;;;;;;5082234;28;20024;-47
2021/01/27 00:46:10;;;;;;;2.63;0.95;;;21.10;39.30;;;;;;5081788;28;20032;-48
2021/01/27 00:48:54;;;;;;;2.90;1.05;;;21.10;39.30;;;;;;5081772;28;20115;-47
2021/01/27 00:51:20;;;;;;;1.33;0.70;;;21.10;39.30;;;;;;5080194;28;20107;-47
2021/01/27 00:54:01;;;;;;;1.92;0.65;;;21.00;39.30;;;;;;5087058;28;20028;-45
2021/01/27 00:56:29;;;;;;;1.63;0.68;;;21.00;39.40;;;;;;5086962;28;20024;-48
2021/01/27 00:59:01;;;;;;;1.23;0.60;;;21.00;39.30;;;;;;5085551;28;20069;-47
2021/01/27 01:01:29;;;;;;;2.67;0.73;;;21.00;39.40;;;;;;5086077;28;20118;-48
2021/01/27 01:03:55;;;;;;;1.40;0.43;;;20.90;39.30;;;;;;5082044;28;20024;-49
2021/01/27 01:06:23;;;;;;;1.13;0.50;;;21.00;39.40;;;;;;5085193;28;20028;-48
2021/01/27 01:08:49;;;;;;;1.02;0.40;;;20.90;39.40;;;;;;5091514;28;20459;-50
2021/01/27 01:11:15;;;;;;;1.27;0.60;;;20.90;39.40;;;;;;5089854;28;20708;-49
2021/01/27 01:13:41;;;;;;;2.35;1.00;;;20.90;39.40;;;;;;5089132;28;20029;-48
2021/01/27 01:16:06;;;;;;;2.38;0.40;;;20.90;39.40;;;;;;5081627;28;20035;-48
2021/01/27 01:18:35;;;;;;;1.17;0.50;;;20.90;39.50;;;;;;5088765;28;20057;-51
2021/01/27 01:21:01;;;;;;;2.10;0.50;;;20.90;39.50;;;;;;5085064;28;20024;-47
2021/01/27 01:23:26;;;;;;;3.38;0.80;;;20.80;39.40;;;;;;5086348;28;20027;-47
2021/01/27 01:25:52;;;;;;;1.08;0.50;;;20.80;39.40;;;;;;5088158;28;20443;-49
2021/01/27 01:28:18;;;;;;;2.28;0.50;;;20.80;39.50;;;;;;5087574;28;20104;-46
2021/01/27 01:30:46;;;;;;;1.08;0.40;;;20.70;39.50;;;;;;5089450;28;20024;-48
2021/01/27 01:33:18;;;;;;;2.05;0.95;;;20.70;39.50;;;;;;5084501;28;20028;-48
2021/01/27 01:35:44;;;;;;;1.20;0.57;;;20.70;39.50;;;;;;5086556;28;20040;-49
2021/01/27 01:38:14;;;;;;;1.83;0.68;;;20.80;39.50;;;;;;5088640;28;20050;-51
2021/01/27 01:40:46;;;;;;;1.50;0.63;;;20.70;39.50;;;;;;5087890;28;20024;-46
2021/01/27 01:43:23;;;;;;;1.45;0.50;;;20.70;39.50;;;;;;5087032;28;20065;-48
2021/01/27 01:46:16;;;;;;;1.15;0.40;;;20.70;39.50;;;;;;5085962;28;20511;-47
2021/01/27 01:48:50;;;;;;;1.38;0.70;;;20.70;39.50;;;;;;5083355;28;20059;-47
2021/01/27 01:51:40;;;;;;;4.85;0.47;;;20.60;39.50;;;;;;5087817;28;20520;-48
2021/01/27 01:54:33;;;;;;;1.33;0.40;;;20.60;39.60;;;;;;5087909;28;20035;-49
2021/01/27 01:57:01;;;;;;;0.93;0.30;;;20.60;39.60;;;;;;5088593;28;20417;-49
2021/01/27 01:59:31;;;;;;;1.85;0.45;;;20.60;39.60;;;;;;5087821;28;20396;-46
2021/01/27 02:02:04;;;;;;;2.45;0.50;;;20.60;39.50;;;;;;5085701;28;20130;-49
2021/01/27 02:04:49;;;;;;;1.13;0.30;;;20.60;39.50;;;;;;5083941;28;20012;-47
2021/01/27 02:07:14;;;;;;;0.98;0.40;;;20.60;39.50;;;;;;5088529;28;20063;-47
2021/01/27 02:09:40;;;;;;;1.25;0.40;;;20.60;39.50;;;;;;5077825;28;20504;-47
2021/01/27 02:12:24;;;;;;;1.40;0.50;;;20.60;39.50;;;;;;5087781;28;20028;-48
2021/01/27 02:14:59;;;;;;;1.00;0.38;;;20.50;39.50;;;;;;5084313;28;20023;-48
2021/01/27 02:17:53;;;;;;;1.52;0.30;;;20.50;39.50;;;;;;5089430;28;20036;-46
2021/01/27 02:20:31;;;;;;;0.70;0.40;;;20.50;39.50;;;;;;5087297;28;20032;-49
2021/01/27 02:23:38;;;;;;;1.30;0.38;;;20.50;39.50;;;;;;5086098;28;20125;-49
2021/01/27 02:26:06;;;;;;;1.20;0.38;;;20.50;39.50;;;;;;5086619;28;20761;-47
2021/01/27 02:29:03;;;;;;;1.45;0.20;;;20.40;39.50;;;;;;5087235;28;20393;-46
2021/01/27 02:31:43;;;;;;;1.27;0.50;;;20.40;39.60;;;;;;5086495;28;20044;-50
2021/01/27 02:34:37;;;;;;;1.00;0.30;;;20.40;39.50;;;;;;5083500;28;20031;-49
2021/01/27 02:37:09;;;;;;;1.23;0.40;;;20.40;39.50;;;;;;5086358;28;20052;-49
2021/01/27 02:39:45;;;;;;;0.98;0.30;;;20.40;39.50;;;;;;5086965;28;20089;-49
2021/01/27 02:42:19;;;;;;;0.90;0.20;;;20.30;39.50;;;;;;5087046;28;20453;-49
2021/01/27 02:45:00;;;;;;;1.48;0.40;;;20.40;39.50;;;;;;5087060;28;20024;-49
2021/01/27 02:47:31;;;;;;;0.75;0.40;;;20.30;39.40;;;;;;5086832;28;20060;-50
2021/01/27 02:50:02;;;;;;;0.85;0.20;;;20.30;39.40;;;;;;5085298;28;20032;-48
2021/01/27 02:52:35;;;;;;;0.77;0.20;;;20.30;39.50;;;;;;5087012;28;20663;-47
2021/01/27 02:55:16;;;;;;;1.98;0.30;;;20.30;39.60;;;;;;5087748;28;20059;-48
2021/01/27 02:58:10;;;;;;;0.70;0.20;;;20.30;39.50;;;;;;5086401;28;20569;-48
2021/01/27 03:00:41;;;;;;;0.55;0.20;;;20.30;39.60;;;;;;5084381;28;20549;-48
2021/01/27 03:03:14;;;;;;;0.80;0.20;;;20.20;39.60;;;;;;5086242;28;20452;-49
2021/01/27 03:05:43;;;;;;;0.50;0.30;;;20.20;39.50;;;;;;5086433;28;20024;-44
2021/01/27 03:08:25;;;;;;;1.05;0.40;;;20.30;39.60;;;;;;5086515;28;20032;-49
2021/01/27 03:11:15;;;;;;;0.77;0.20;;;20.20;39.40;;;;;;5085559;28;20032;-50
2021/01/27 03:13:44;;;;;;;0.82;0.20;;;20.20;39.20;;;;;;5085177;28;20085;-47
2021/01/27 03:16:18;;;;;;;5.00;0.40;;;20.20;39.30;;;;;;5085011;28;20032;-49
2021/01/27 03:18:49;;;;;;;0.70;0.22;;;20.20;39.50;;;;;;5087625;28;20064;-49
2021/01/27 03:21:25;;;;;;;0.90;0.40;;;20.20;39.40;;;;;;5083625;28;20031;-49
2021/01/27 03:23:55;;;;;;;0.55;0.20;;;20.10;39.40;;;;;;5086652;28;20031;-47
2021/01/27 03:26:32;;;;;;;1.13;0.22;;;20.10;39.50;;;;;;5084116;28;20081;-48
2021/01/27 03:29:09;;;;;;;0.95;0.30;;;20.20;39.60;;;;;;5086700;28;20055;-49
2021/01/27 03:31:35;;;;;;;0.77;0.20;;;20.20;39.50;;;;;;5085500;28;20027;-48
2021/01/27 03:34:17;;;;;;;0.50;0.30;;;20.20;39.30;;;;;;5085802;28;20097;-50
2021/01/27 03:36:47;;;;;;;;;;;20.20;39.40;;;;;;5086195;28;20031;-48
2021/01/27 03:39:14;;;;;;;0.55;0.20;;;20.10;39.40;;;;;;5099877;28;19912;-48
2021/01/27 03:41:54;;;;;;;0.50;0.20;;;20.10;39.40;;;;;;5085159;28;20013;-47
2021/01/27 03:44:35;;;;;;;0.60;0.20;;;20.10;39.50;;;;;;5085101;28;20028;-49
2021/01/27 03:47:11;;;;;;;0.50;0.20;;;20.10;39.50;;;;;;5086027;28;20508;-49
2021/01/27 03:50:00;;;;;;;0.55;0.20;;;20.10;39.50;;;;;;5084525;28;20031;-46
2021/01/27 03:52:54;;;;;;;0.80;0.20;;;20.00;39.50;;;;;;5085730;28;20531;-49
2021/01/27 03:55:41;;;;;;;0.50;0.17;;;20.00;39.50;;;;;;5086306;28;20108;-46
2021/01/27 03:58:24;;;;;;;0.90;0.20;;;20.10;39.50;;;;;;5085363;28;20624;-45
2021/01/27 04:00:51;;;;;;;1.27;0.30;;;20.00;39.50;;;;;;5084153;28;20035;-50
2021/01/27 04:03:21;;;;;;;1.45;0.22;;;20.00;39.40;;;;;;5067203;28;20027;-49
2021/01/27 04:05:47;;;;;;;0.65;0.35;;;20.00;39.40;;;;;;5083187;28;20027;-47
2021/01/27 04:08:14;;;;;;;0.75;0.28;;;20.00;39.50;;;;;;5083695;28;20060;-46
2021/01/27 04:10:41;;;;;;;0.50;0.17;;;20.00;39.40;;;;;;5085413;28;20082;-47
2021/01/27 04:13:07;;;;;;;0.70;0.20;;;20.00;39.50;;;;;;5085047;28;20067;-49
2021/01/27 04:15:33;;;;;;;0.57;0.20;;;19.90;39.50;;;;;;5085869;28;20059;-47
2021/01/27 04:17:58;;;;;;;2.03;0.25;;;19.90;39.50;;;;;;5085251;28;20020;-48
2021/01/27 04:20:25;;;;;;;1.38;0.38;;;20.00;39.60;;;;;;5085358;28;20047;-48
2021/01/27 04:22:50;;;;;;;0.47;0.20;;;20.00;39.50;;;;;;5085840;28;20032;-48
2021/01/27 04:25:17;;;;;;;0.63;0.20;;;19.90;39.50;;;;;;5086985;28;20130;-49
2021/01/27 04:27:43;;;;;;;0.60;0.20;;;19.90;39.50;;;;;;5085875;28;20067;-45
2021/01/27 04:30:11;;;;;;;0.47;0.10;;;19.90;39.50;;;;;;5082527;28;20074;-48
2021/01/27 04:32:37;;;;;;;0.40;0.10;;;19.90;39.50;;;;;;5086631;28;20073;-48
2021/01/27 04:35:04;;;;;;;1.00;0.20;;;19.90;39.50;;;;;;5086545;28;20533;-49
2021/01/27 04:37:29;;;;;;;0.73;0.20;;;19.80;39.50;;;;;;5085953;28;20408;-45
2021/01/27 04:39:55;;;;;;;1.77;0.10;;;19.90;39.50;;;;;;5087896;28;20040;-49
2021/01/27 04:42:26;;;;;;;0.32;0.10;;;19.90;39.50;;;;;;5089223;28;20035;-49
2021/01/27 04:44:56;;;;;;;0.65;0.10;;;19.80;39.50;;;;;;5091510;28;20036;-49
2021/01/27 04:48:00;;;;;;;0.60;0.17;;;19.90;39.50;;;;;;5096121;28;20131;-49
2021/01/27 04:50:44;;;;;;;0.55;0.20;;;19.80;39.40;;;;;;5096792;28;20035;-50
2021/01/27 04:53:41;;;;;;;0.35;0.10;;;19.80;39.50;;;;;;5090589;28;20489;-49
2021/01/27 04:56:14;;;;;;;0.20;0.03;;;19.80;39.40;;;;;;5084283;28;20032;-49
2021/01/27 04:58:49;;;;;;;0.30;0.10;;;19.80;39.40;;;;;;5082068;28;20446;-46
2021/01/27 05:01:20;;;;;;;0.40;0.10;;;19.80;39.40;;;;;;5078357;28;20031;-49
2021/01/27 05:04:08;;;;;;;0.45;0.10;;;19.80;39.50;;;;;;5085697;28;20074;-48
2021/01/27 05:06:41;;;;;;;0.30;0.10;;;19.80;39.40;;;;;;5082994;28;20517;-51
2021/01/27 05:09:30;;;;;;;0.75;0.10;;;19.80;39.50;;;;;;5086033;28;20050;-48
2021/01/27 05:11:57;;;;;;;0.30;0.10;;;19.70;39.40;;;;;;5082889;28;20028;-48
2021/01/27 05:14:24;;;;;;;0.82;0.10;;;19.70;39.40;;;;;;5081720;28;20028;-48
2021/01/27 05:16:51;;;;;;;0.50;0.10;;;19.70;39.30;;;;;;5081762;28;20392;-46
2021/01/27 05:19:17;;;;;;;0.32;0.10;;;19.70;39.40;;;;;;5082882;28;20091;-45
2021/01/27 05:21:56;;;;;;;1.27;0.20;;;19.70;39.40;;;;;;5082393;28;20016;-48
2021/01/27 05:24:22;;;;;;;1.30;0.10;;;19.70;39.40;;;;;;5084568;28;20565;-46
2021/01/27 05:26:57;;;;;;;0.80;0.10;;;19.70;39.40;;;;;;5086782;28;20043;-47
2021/01/27 05:29:51;;;;;;;0.60;0.10;;;19.70;39.40;;;;;;5084422;28;20030;-47
2021/01/27 05:32:25;;;;;;;2.45;0.20;;;19.70;39.50;;;;;;5080622;28;20024;-48
2021/01/27 05:34:57;;;;;;;0.57;0.10;;;19.70;39.40;;;;;;5084726;28;20106;-49
2021/01/27 05:37:29;;;;;;;1.20;0.10;;;19.70;39.40;;;;;;5082506;28;20066;-49
2021/01/27 05:40:25;;;;;;;0.50;0.10;;;19.60;39.40;;;;;;5086020;28;20024;-49
2021/01/27 05:42:51;;;;;;;0.28;0.10;;;19.60;39.30;;;;;;5086315;28;20024;-48
2021/01/27 05:45:31;;;;;;;0.17;0.10;;;19.60;39.40;;;;;;5087516;28;20076;-47
2021/01/27 05:48:34;;;;;;;0.40;0.10;;;19.60;39.40;;;;;;5085947;28;20024;-46
2021/01/27 05:51:02;;;;;;;0.52;0.10;;;19.60;39.30;;;;;;5085981;28;20400;-48
2021/01/27 05:53:31;;;;;;;0.47;0.13;;;19.60;39.30;;;;;;5088479;28;20032;-48
2021/01/27 05:56:01;;;;;;;0.60;0.10;;;19.60;39.30;;;;;;5083413;28;20024;-48
2021/01/27 05:58:28;;;;;;;0.30;0.10;;;19.60;39.30;;;;;;5089640;28;20496;-48
2021/01/27 06:01:11;;;;;;;0.15;0.10;;;19.60;39.30;;;;;;5085791;28;20082;-44
2021/01/27 06:03:37;;;;;;;0.80;0.10;;;19.60;39.30;;;;;;5087266;28;20033;-48
2021/01/27 06:06:10;;;;;;;0.35;0.10;;;19.60;39.30;;;;;;5083993;28;20127;-46
2021/01/27 06:08:51;;;;;;;0.50;0.10;;;19.60;39.30;;;;;;5084927;28;20064;-50
2021/01/27 06:11:17;;;;;;;0.20;0.10;;;19.60;39.30;;;;;;5083928;28;20085;-48
2021/01/27 06:13:43;;;;;;;0.30;0.10;;;19.60;39.30;;;;;;5084211;28;20027;-49
2021/01/27 06:16:21;;;;;;;0.30;0.10;;;19.50;39.30;;;;;;5087508;28;20059;-49
2021/01/27 06:18:47;;;;;;;0.30;0.10;;;19.50;39.30;;;;;;5088051;28;20028;-47
2021/01/27 06:21:42;;;;;;;0.60;0.10;;;19.50;39.30;;;;;;5084852;28;20032;-50
2021/01/27 06:24:33;;;;;;;0.57;0.15;;;19.50;39.30;;;;;;5064959;28;20036;-48
2021/01/27 06:27:13;;;;;;;0.15;0.00;;;19.50;39.30;;;;;;5083680;28;20024;-47
2021/01/27 06:30:06;;;;;;;0.47;0.10;;;19.50;39.20;;;;;;5085414;28;20408;-46
2021/01/27 06:32:52;;;;;;;0.10;0.00;;;19.60;39.20;;;;;;5079498;28;20063;-47
2021/01/27 06:35:59;;;;;;;0.17;0.00;;;19.70;38.90;;;;;;5084278;28;20524;-47
2021/01/27 06:38:57;;;;;;;0.30;0.10;;;20.00;38.50;;;;;;5086385;28;20016;-49
2021/01/27 06:41:32;;;;;;;0.40;0.10;;;20.20;38.40;;;;;;5084379;28;20091;-49
2021/01/27 06:44:04;;;;;;;;;;;20.30;38.10;;;;;;5077254;28;20042;-47
2021/01/27 06:47:04;;;;;;;0.38;0.00;;;20.40;38.00;;;;;;5077544;28;19908;-48
2021/01/27 06:49:57;;;;;;;0.43;0.00;;;20.50;37.90;;;;;;5077815;28;20058;-45
2021/01/27 06:53:08;;;;;;;0.30;0.00;;;20.40;37.60;;;;;;5081077;28;20029;-47
2021/01/27 06:56:11;;;;;;;0.10;0.00;;;20.50;37.70;;;;;;5077223;28;20093;-48
2021/01/27 06:59:11;;;;;;;0.30;0.00;;;20.50;37.70;;;;;;5077491;28;20047;-47
2021/01/27 07:02:15;;;;;;;0.30;0.08;;;20.50;37.60;;;;;;5077452;28;20093;-47
2021/01/27 07:05:07;;;;;;;0.20;0.10;;;20.60;37.70;;;;;;5077234;28;20024;-51
2021/01/27 07:08:23;;;;;;;0.10;0.00;;;20.60;37.60;;;;;;5076312;28;20024;-48
2021/01/27 07:11:04;;;;;;;0.22;0.00;;;20.70;37.40;;;;;;5075963;28;20035;-49
2021/01/27 07:13:58;;;;;;;0.30;0.10;;;20.70;37.40;;;;;;5076777;28;20489;-50
2021/01/27 07:16:46;;;;;;;0.15;0.00;;;20.70;37.30;;;;;;5075332;28;20787;-45
2021/01/27 07:19:21;;;;;;;0.38;0.10;;;20.80;37.20;;;;;;5073688;28;20047;-51
2021/01/27 07:22:09;;;;;;;0.10;0.00;;;20.80;36.70;;;;;;5080194;28;20433;-51
2021/01/27 07:24:48;;;;;;;0.43;0.10;;;20.80;37.00;;;;;;5083991;28;20032;-47
2021/01/27 07:27:22;;;;;;;0.57;0.10;;;20.80;37.20;;;;;;5081803;28;20104;-48
2021/01/27 07:30:01;;;;;;;0.30;0.00;;;20.70;37.20;;;;;;5097623;27;20028;-44
2021/01/27 07:32:34;;;;;;;0.98;0.10;;;20.80;37.30;;;;;;5086723;28;20043;-48
2021/01/27 07:35:17;;;;;;;0.32;0.00;;;20.80;37.20;;;;;;5080621;28;20036;-46
2021/01/27 07:37:58;;;;;;;0.28;0.00;;;20.90;37.10;;;;;;5078545;28;20032;-46
2021/01/27 07:40:34;;;;;;;2.13;0.10;;;20.90;37.30;;;;;;5085134;28;20039;-46
2021/01/27 07:43:24;;;;;;;0.20;0.00;;;21.00;37.20;;;;;;5082541;28;20992;-51
2021/01/27 07:45:52;;;;;;;1.17;0.00;;;21.20;37.30;;;;;;5082710;28;20088;-51
2021/01/27 07:48:41;;;;;;;0.20;0.10;;;21.20;37.20;;;;;;5084131;28;20089;-48
2021/01/27 07:51:25;;;;;;;0.30;0.08;;;21.20;37.20;;;;;;5083297;28;20154;-52
2021/01/27 07:54:21;;;;;;;0.15;0.00;;;21.30;37.30;;;;;;5084769;28;20038;-55
2021/01/27 07:57:26;;;;;;;0.17;0.00;;;21.30;37.30;;;;;;5081527;28;20035;-50
2021/01/27 08:00:02;;;;;;;0.00;0.00;;;21.40;37.30;;;;;;5083433;28;20036;-50
2021/01/27 08:02:31;;;;;;;0.13;0.00;;;21.40;37.70;;;;;;5082190;28;20033;-47
2021/01/27 08:05:08;;;;;;;0.40;0.10;;;21.50;37.20;;;;;;5084415;28;20357;-48
2021/01/27 08:07:38;;;;;;;0.30;0.00;;;21.50;37.60;;;;;;5083269;28;20500;-51
2021/01/27 08:10:13;;;;;;;0.43;0.00;;;21.50;37.80;;;;;;5083011;28;20452;-51
2021/01/27 08:12:50;;;;;;;0.20;0.00;;;21.50;38.00;;;;;;5081462;28;20180;-51
2021/01/27 08:15:24;;;;;;;0.20;0.00;;;21.50;38.60;;;;;;5079353;28;20089;-52
2021/01/27 08:17:55;;;;;;;0.22;0.00;;;21.50;38.00;;;;;;5079670;28;20032;-48
2021/01/27 08:20:25;;;;;;;0.90;0.10;;;21.50;38.00;;;;;;5079886;28;20430;-49
2021/01/27 08:22:52;;;;;;;0.40;0.10;;;21.50;38.10;;;;;;5078626;28;20424;-50
2021/01/27 08:25:55;;;;;;;2.92;0.00;;;21.50;38.00;;;;;;5077319;28;20036;-49
2021/01/27 08:28:21;;;;;;;0.63;0.10;;;21.40;38.00;;;;;;5077995;28;20104;-51
2021/01/27 08:31:08;;;;;;;0.85;0.00;;;21.40;38.30;;;;;;5074315;28;21795;-47
2021/01/27 08:33:46;;;;;;;0.20;0.05;;;21.40;38.30;;;;;;5075545;28;20357;-51
2021/01/27 08:36:14;;;;;;;0.60;0.10;;;21.40;38.50;;;;;;5073010;28;20032;-48
2021/01/27 08:38:46;;;;;;;2.15;0.05;;;21.30;38.40;;;;;;5080910;28;20035;-50
2021/01/27 08:41:39;;;;;;;1.05;0.10;;;21.30;38.40;;;;;;5083060;28;20089;-51
2021/01/27 08:44:05;;;;;;;0.73;0.10;;;21.30;38.70;;;;;;5085864;28;20036;-52
2021/01/27 08:46:44;;;;;;;0.73;0.10;;;21.30;38.70;;;;;;5086135;28;20028;-51
2021/01/27 08:49:10;;;;;;;1.35;0.10;;;21.30;38.70;;;;;;5081653;28;20036;-53
2021/01/27 08:51:44;;;;;;;2.67;0.40;;;21.30;38.80;;;;;;5082306;28;20090;-48
2021/01/27 08:54:34;;;;;;;0.28;0.10;;;21.20;38.70;;;;;;5082630;28;20115;-49
2021/01/27 08:57:28;;;;;;;0.88;0.20;;;21.20;38.70;;;;;;5083014;28;20035;-53
2021/01/27 09:00:14;;;;;;;1.25;0.20;;;21.10;38.90;;;;;;5081878;28;20051;-49
2021/01/27 09:03:00;;;;;;;0.55;0.17;;;21.00;38.90;;;;;;5084457;28;20103;-51
2021/01/27 09:05:25;;;;;;;1.70;0.13;;;20.90;38.90;;;;;;5080775;28;20456;-51
2021/01/27 09:08:27;;;;;;;0.40;0.10;;;20.90;38.90;;;;;;5080606;28;20152;-47
2021/01/27 09:10:57;;;;;;;0.50;0.10;;;20.80;39.00;;;;;;5073405;28;20033;-50
2021/01/27 09:13:39;;;;;;;0.50;0.10;;;20.90;39.30;;;;;;5078554;28;20119;-50
2021/01/27 09:16:10;;;;;;;0.95;0.10;;;20.90;39.30;;;;;;5084639;28;20028;-51
2021/01/27 09:18:37;;;;;;;1.02;0.10;;;21.00;39.40;;;;;;5084989;28;20028;-51
2021/01/27 09:21:10;;;;;;;0.10;0.08;;;21.00;39.10;;;;;;5088624;28;20042;-51
2021/01/27 09:23:36;;;;;;;1.17;0.10;;;21.10;40.50;;;;;;5105227;28;20577;-51
2021/01/27 09:26:16;;;;;;;2.50;0.10;;;21.30;39.20;;;;;;5078641;28;20032;-53
2021/01/27 09:28:42;;;;;;;0.75;0.10;;;21.40;39.00;;;;;;5081042;28;20039;-50
2021/01/27 09:31:18;;;;;;;0.98;0.10;;;21.50;38.80;;;;;;5093514;28;20032;-50
2021/01/27 09:33:43;;;;;;;0.47;0.20;;;21.60;38.80;;;;;;5098444;28;20427;-48
2021/01/27 09:36:30;;;;;;;1.77;0.10;;;21.60;38.70;;;;;;5099091;28;20182;-48
2021/01/27 09:38:57;;;;;;;0.70;0.20;;;21.70;38.60;;;;;;5096793;28;20020;-47
2021/01/27 09:41:30;;;;;;;0.57;0.20;;;21.70;38.60;;;;;;5094233;28;20039;-48
2021/01/27 09:43:57;;;;;;;1.27;0.30;;;21.70;38.60;;;;;;5087405;28;20115;-48
2021/01/27 09:46:29;;;;;;;0.32;0.20;;;21.70;38.70;;;;;;5084101;28;21180;-47
2021/01/27 09:48:59;;;;;;;0.30;0.10;;;21.70;38.60;;;;;;5084813;28;20511;-47
2021/01/27 09:51:25;;;;;;;0.55;0.20;;;21.70;38.60;;;;;;5084937;28;20395;-50
2021/01/27 09:54:00;;;;;;;0.45;0.10;;;21.70;38.70;;;;;;5087020;28;20038;-49
2021/01/27 09:56:27;;;;;;;0.57;0.20;;;21.70;38.70;;;;;;5085666;28;20052;-50
2021/01/27 09:58:54;;;;;;;1.65;0.30;;;21.70;38.70;;;;;;5086478;28;20067;-44
2021/01/27 10:01:31;;;;;;;0.40;0.10;;;21.80;38.70;;;;;;5085580;28;20040;-46
2021/01/27 10:04:11;;;;;;;1.95;0.20;;;21.90;38.60;;;;;;5086388;28;20027;-47
2021/01/27 10:06:43;;;;;;;0.40;0.10;;;22.00;38.50;;;;;;5085460;28;20046;-46
2021/01/27 10:09:23;;;;;;;0.95;0.10;;;22.00;38.60;;;;;;5088915;28;20098;-47
2021/01/27 10:11:59;;;;;;;0.63;0.20;;;22.00;38.70;;;;;;5087618;28;20106;-47
2021/01/27 10:14:29;;;;;;;2.05;0.10;;;22.00;38.80;;;;;;5084908;28;20054;-47
2021/01/27 10:17:00;;;;;;;0.60;0.20;;;21.90;38.80;;;;;;5087082;28;20041;-51
2021/01/27 10:19:32;;;;;;;0.40;0.10;;;21.90;38.90;;;;;;5090860;28;20058;-49
2021/01/27 10:22:00;;;;;;;0.40;0.10;;;21.90;38.90;;;;;;5091550;28;20093;-50
2021/01/27 10:24:43;;;;;;;0.50;0.20;;;21.90;39.10;;;;;;5087234;28;20058;-49
2021/01/27 10:27:34;;;;;;;0.47;0.10;;;21.80;39.10;;;;;;5088854;28;20047;-48
2021/01/27 10:30:03;;;;;;;0.40;0.10;;;21.80;39.20;;;;;;5075524;28;20059;-48
2021/01/27 10:32:31;;;;;;;0.65;0.22;;;21.80;39.30;;;;;;5086279;28;20358;-49
2021/01/27 10:34:58;;;;;;;0.40;0.10;;;21.70;39.30;;;;;;5077956;28;20481;-47
2021/01/27 10:37:44;;;;;;;0.50;0.10;;;21.70;39.20;;;;;;5076419;28;20036;-45
2021/01/27 10:40:12;;;;;;;0.60;0.13;;;21.60;39.30;;;;;;5082030;28;20074;-48
2021/01/27 10:42:40;;;;;;;0.38;0.10;;;21.60;39.50;;;;;;5078871;28;20028;-46
2021/01/27 10:45:22;;;;;;;0.40;0.17;;;21.60;39.50;;;;;;5087032;28;20028;-49
2021/01/27 10:48:11;;;;;;;0.68;0.10;;;21.50;39.30;;;;;;5085951;28;20020;-50
2021/01/27 10:50:55;;;;;;;1.17;0.10;;;21.50;39.60;;;;;;5085850;28;20081;-47
2021/01/27 10:53:21;;;;;;;0.60;0.20;;;21.50;39.70;;;;;;5080615;28;20035;-47
2021/01/27 10:55:53;;;;;;;0.85;0.35;;;21.40;39.40;;;;;;5087783;28;20047;-45
2021/01/27 10:58:19;;;;;;;;;;;21.40;39.70;;;;;;5087648;28;20042;-49
2021/01/27 11:00:45;;;;;;;0.32;0.10;;;21.40;39.60;;;;;;5087609;28;19916;-52
2021/01/27 11:03:12;;;;;;;0.90;0.10;;;21.40;39.80;;;;;;5082550;28;20043;-44
2021/01/27 11:05:38;;;;;;;1.42;0.20;;;21.40;39.80;;;;;;5084833;28;20078;-49
2021/01/27 11:08:05;;;;;;;0.60;0.20;;;21.40;39.90;;;;;;5079571;28;20028;-47
2021/01/27 11:10:31;;;;;;;0.40;0.10;;;21.40;40.00;;;;;;5082212;28;20039;-48
2021/01/27 11:12:57;;;;;;;0.98;0.10;;;21.40;39.90;;;;;;5085298;28;20028;-46
2021/01/27 11:15:24;;;;;;;1.00;0.10;;;21.30;39.70;;;;;;5085769;28;20051;-51
2021/01/27 11:17:50;;;;;;;0.40;0.13;;;21.20;40.40;;;;;;5084135;28;20028;-49
2021/01/27 11:20:22;;;;;;;0.88;0.25;;;21.20;39.90;;;;;;5085904;28;20066;-49
2021/01/27 11:22:52;;;;;;;0.47;0.10;;;21.30;40.00;;;;;;5084303;28;20028;-51
2021/01/27 11:25:23;;;;;;;4.68;0.20;;;21.20;40.00;;;;;;5082075;28;20028;-51
2021/01/27 11:27:49;;;;;;;0.73;0.10;;;21.20;39.80;;;;;;5085182;28;20017;-49
2021/01/27 11:30:18;;;;;;;1.02;0.22;;;21.40;39.90;;;;;;5085171;28;20468;-51
2021/01/27 11:32:43;;;;;;;0.63;0.10;;;21.50;39.70;;;;;;5085258;28;20389;-47
2021/01/27 11:35:09;;;;;;;1.38;0.13;;;21.60;39.50;;;;;;5086736;28;20039;-50
2021/01/27 11:37:35;;;;;;;0.50;0.10;;;21.70;39.20;;;;;;5085925;28;20028;-48
2021/01/27 11:40:01;;;;;;;0.52;0.10;;;21.80;39.20;;;;;;5086372;28;20040;-52
2021/01/27 11:42:26;;;;;;;0.38;0.10;;;21.90;39.00;;;;;;5083974;28;20126;-52
2021/01/27 11:44:52;;;;;;;0.38;0.10;;;21.90;38.90;;;;;;5086369;28;20440;-48
2021/01/27 11:47:18;;;;;;;2.38;0.20;;;21.90;38.90;;;;;;5087053;28;20028;-44
2021/01/27 11:49:46;;;;;;;0.60;0.10;;;22.00;38.90;;;;;;5084663;28;20035;-48
2021/01/27 11:52:12;;;;;;;0.50;0.10;;;22.00;38.80;;;;;;5084184;28;20043;-50
2021/01/27 11:54:39;;;;;;;0.70;0.20;;;22.00;39.00;;;;;;5084557;28;20673;-42
2021/01/27 11:57:06;;;;;;;0.45;0.10;;;22.00;39.00;;;;;;5086541;28;20032;-51
2021/01/27 11:59:32;;;;;;;0.35;0.10;;;22.00;38.90;;;;;;5083235;28;20092;-50
2021/01/27 12:01:59;;;;;;;0.60;0.10;;;22.00;38.90;;;;;;5084556;28;20027;-46
2021/01/27 12:04:24;;;;;;;0.40;0.10;;;22.00;38.90;;;;;;5085040;28;20032;-51
2021/01/27 12:06:50;;;;;;;0.70;0.10;;;22.10;38.90;;;;;;5081516;28;20024;-52
2021/01/27 12:09:16;;;;;;;1.05;0.20;;;22.10;38.90;;;;;;5082579;28;20177;-48
2021/01/27 12:11:42;;;;;;;0.65;0.10;;;22.20;38.90;;;;;;5084380;28;20031;-47
2021/01/27 12:14:08;;;;;;;0.30;0.10;;;22.20;38.80;;;;;;5080297;28;20042;-45
2021/01/27 12:16:33;;;;;;;0.55;0.10;;;22.20;38.90;;;;;;5080756;28;20012;-43
2021/01/27 12:18:59;;;;;;;0.30;0.10;;;22.20;38.90;;;;;;5082962;28;20123;-49
2021/01/27 12:21:25;;;;;;;0.52;0.20;;;22.20;39.00;;;;;;5084354;28;20437;-51
2021/01/27 12:23:50;;;;;;;0.50;0.10;;;22.20;39.00;;;;;;5086247;28;20020;-48
2021/01/27 12:26:16;;;;;;;0.30;0.10;;;22.20;39.00;;;;;;5085226;28;20031;-50
2021/01/27 12:28:42;;;;;;;0.80;0.20;;;22.20;39.00;;;;;;5081807;28;20032;-50
2021/01/27 12:31:09;;;;;;;0.45;0.13;;;22.30;39.00;;;;;;5079751;28;20024;-49
2021/01/27 12:33:35;;;;;;;1.10;0.20;;;22.20;39.00;;;;;;5083568;28;20074;-50
2021/01/27 12:36:00;;;;;;;0.65;0.10;;;22.20;39.10;;;;;;5085622;28;20535;-48
2021/01/27 12:38:26;;;;;;;0.57;0.20;;;22.10;39.30;;;;;;5079620;28;20032;-49
2021/01/27 12:40:51;;;;;;;0.30;0.10;;;22.00;39.30;;;;;;5079101;28;20078;-47
2021/01/27 12:43:18;;;;;;;0.60;0.20;;;22.00;39.40;;;;;;5080185;28;20028;-46
2021/01/27 12:45:43;;;;;;;1.73;0.20;;;21.80;39.40;;;;;;5083406;28;20471;-48
2021/01/27 12:48:09;;;;;;;0.88;0.20;;;21.70;39.60;;;;;;5084604;28;20036;-47
2021/01/27 12:50:34;;;;;;;0.40;0.10;;;21.70;39.80;;;;;;5091346;28;20039;-44
2021/01/27 12:53:00;;;;;;;2.15;0.35;;;21.60;39.70;;;;;;5090522;28;20035;-48
2021/01/27 12:55:26;;;;;;;0.40;0.10;;;21.60;39.70;;;;;;5093002;28;20036;-46
2021/01/27 12:57:51;;;;;;;1.48;0.20;;;21.60;39.60;;;;;;5092376;28;20063;-47
2021/01/27 13:00:25;;;;;;;0.70;0.20;;;21.70;39.70;;;;;;5089047;28;20101;-47
2021/01/27 13:02:51;;;;;;;0.52;0.20;;;21.60;39.70;;;;;;5086816;28;20028;-45
2021/01/27 13:05:19;;;;;;;3.80;0.20;;;21.60;39.70;;;;;;5091885;28;20031;-48
2021/01/27 13:07:45;;;;;;;3.05;0.15;;;21.70;39.80;;;;;;5089100;28;20421;-46
2021/01/27 13:10:11;;;;;;;5.88;0.20;;;21.60;39.80;;;;;;5092120;28;20086;-49
2021/01/27 13:12:38;;;;;;;1.45;0.10;;;21.60;39.90;;;;;;5087547;28;20119;-49
2021/01/27 13:15:10;;;;;;;0.50;0.10;;;21.60;39.90;;;;;;5090232;28;20038;-49
2021/01/27 13:17:35;;;;;;;0.95;0.10;;;21.60;39.90;;;;;;5092803;28;20443;-50
2021/01/27 13:20:01;;;;;;;0.30;0.20;;;21.60;40.00;;;;;;5088045;28;20032;-48
2021/01/27 13:22:27;;;;;;;0.30;0.10;;;21.60;40.30;;;;;;5086296;28;20024;-51
2021/01/27 13:24:52;;;;;;;0.60;0.10;;;21.50;40.10;;;;;;5093294;28;20086;-43